Terminal Aerodrome Forecast
Issued by NWS Binghamton, NY

Home | Current Version | Previous Version | Text Only | Print | Product List | Glossary On
Versions: 1 2 3 4 5 6 7 8 9 10 11 12 13 14 15 16 17 18 19
000
FTUS41 KBGM 301927 AAB
TAFBGM
TAF AMD
KBGM 301927Z 3019/0118 09009KT 5SM -SHRA BR OVC012
      TEMPO 3020/3024 2SM -DZ BR OVC005
     FM010000 09009KT 5SM BR OVC008
      TEMPO 0108/0112 2SM BR OVC004
     FM011500 13010KT P6SM OVC025=

USA.gov is the U.S. government's official web portal to all federal, state and local government web resources and services.